createdAt,value
2018-04-04T00:01:23.131Z,6.75
2018-04-04T00:03:51.778Z,6.86
2018-04-04T00:06:20.463Z,6.76
2018-04-04T00:08:50.154Z,6.69
2018-04-04T00:11:19.008Z,6.71
2018-04-04T00:13:47.688Z,6.72
2018-04-04T00:18:51.613Z,6.68
2018-04-04T00:21:20.408Z,6.67
2018-04-04T00:23:49.024Z,6.64
2018-04-04T00:26:18.590Z,6.60
2018-04-04T00:28:47.343Z,6.59
2018-04-04T00:31:16.668Z,6.56
2018-04-04T00:33:46.287Z,6.55
2018-04-04T00:36:21.702Z,6.58
2018-04-04T00:38:52.027Z,6.64
2018-04-04T00:41:20.723Z,6.68
2018-04-04T00:43:49.441Z,6.71
2018-04-04T00:46:18.024Z,6.68
2018-04-04T00:48:46.801Z,6.67
2018-04-04T00:51:15.822Z,6.70
2018-04-04T00:53:47.107Z,6.67
2018-04-04T00:56:15.799Z,6.62
2018-04-04T00:58:45.409Z,6.63
2018-04-04T01:01:16.651Z,6.61
2018-04-04T01:03:45.511Z,6.57
2018-04-04T01:06:14.235Z,6.50
2018-04-04T01:08:45.854Z,6.44
2018-04-04T01:11:14.716Z,6.45
2018-04-04T01:13:43.300Z,6.49
2018-04-04T01:16:14.564Z,6.53
2018-04-04T01:18:43.301Z,6.47
2018-04-04T01:21:11.989Z,6.42
2018-04-04T01:23:41.265Z,6.38
2018-04-04T01:26:09.970Z,6.39
2018-04-04T01:28:38.863Z,6.39
2018-04-04T01:31:07.664Z,6.35
2018-04-04T01:33:36.489Z,6.32
2018-04-04T01:36:05.160Z,6.31
2018-04-04T01:41:07.972Z,6.30
2018-04-04T01:43:38.397Z,6.35
2018-04-04T01:46:18.866Z,6.29
2018-04-04T01:48:47.687Z,6.28
2018-04-04T01:51:16.325Z,6.33
2018-04-04T01:53:47.458Z,6.35
2018-04-04T01:56:16.328Z,6.40
2018-04-04T01:58:45.252Z,6.42
2018-04-04T02:01:14.688Z,6.37
2018-04-04T02:03:43.532Z,6.33
2018-04-04T02:06:17.627Z,6.29
2018-04-04T02:08:47.733Z,6.28
2018-04-04T02:11:16.476Z,6.25
2018-04-04T02:13:48.046Z,6.26
2018-04-04T02:16:16.656Z,6.28
2018-04-04T02:18:46.236Z,6.31
2018-04-04T02:21:16.562Z,6.34
2018-04-04T02:23:45.150Z,6.43
2018-04-04T02:26:13.726Z,6.41
2018-04-04T02:28:42.460Z,6.36
2018-04-04T02:31:11.357Z,6.33
2018-04-04T02:33:40.241Z,6.31
2018-04-04T02:36:08.999Z,6.27
2018-04-04T02:38:37.971Z,6.19
2018-04-04T02:41:06.716Z,6.09
2018-04-04T02:43:36.367Z,6.06
2018-04-04T02:46:05.114Z,6.02
2018-04-04T02:48:33.798Z,5.98
2018-04-04T02:51:03.369Z,5.95
2018-04-04T02:53:32.035Z,5.98
2018-04-04T02:56:00.803Z,5.93
2018-04-04T02:58:31.619Z,5.90
2018-04-04T03:01:01.010Z,5.89
2018-04-04T03:03:29.709Z,5.91
2018-04-04T03:08:31.897Z,5.95
2018-04-04T03:11:00.687Z,5.96
2018-04-04T03:13:30.167Z,5.92
2018-04-04T03:15:59.538Z,5.97
2018-04-04T03:18:28.093Z,6.04
2018-04-04T03:20:56.968Z,6.04
2018-04-04T03:23:25.695Z,5.98
2018-04-04T03:25:55.308Z,5.96
2018-04-04T03:28:23.943Z,5.95
2018-04-04T03:30:53.749Z,5.99
2018-04-04T03:33:22.577Z,6.05
2018-04-04T03:35:51.385Z,6.12
2018-04-04T03:38:20.230Z,6.09
2018-04-04T03:40:48.967Z,6.08
2018-04-04T03:43:17.816Z,6.07
2018-04-04T03:45:46.708Z,6.09
2018-04-04T03:48:16.200Z,6.15
2018-04-04T03:50:45.675Z,6.23
2018-04-04T03:53:15.318Z,6.31
2018-04-04T03:55:44.053Z,6.43
2018-04-04T04:00:47.729Z,6.64
2018-04-04T04:03:16.764Z,6.80
2018-04-04T04:05:47.451Z,7.17
2018-04-04T04:08:16.136Z,7.86
2018-04-04T04:10:44.925Z,8.62
2018-04-04T04:13:13.620Z,9.47
2018-04-04T04:15:42.203Z,10.36
2018-04-04T04:18:11.450Z,11.12
2018-04-04T04:20:40.334Z,11.86
2018-04-04T04:23:09.355Z,12.42
2018-04-04T04:25:38.934Z,12.87
2018-04-04T04:28:08.550Z,13.40
2018-04-04T04:30:37.228Z,14.10
2018-04-04T04:33:06.025Z,14.37
2018-04-04T04:38:08.913Z,14.71
2018-04-04T04:40:37.737Z,14.35
2018-04-04T04:43:08.057Z,13.86
2018-04-04T04:45:37.662Z,13.38
2018-04-04T04:48:07.169Z,12.93
2018-04-04T04:50:35.765Z,12.61
2018-04-04T04:53:04.671Z,12.06
2018-04-04T04:55:34.231Z,11.91
2018-04-04T04:58:03.220Z,11.65
2018-04-04T05:00:32.372Z,11.09
2018-04-04T05:03:01.503Z,10.76
2018-04-04T05:05:31.818Z,10.69
2018-04-04T05:08:01.204Z,10.50
2018-04-04T05:10:30.578Z,10.29
2018-04-04T05:13:00.746Z,10.32
2018-04-04T05:15:29.455Z,10.16
2018-04-04T05:17:57.980Z,10.17
2018-04-04T05:20:27.397Z,10.24
2018-04-04T05:22:55.986Z,10.40
2018-04-04T05:25:24.585Z,10.36
2018-04-04T05:27:53.137Z,10.39
2018-04-04T05:30:21.744Z,10.46
2018-04-04T05:32:50.414Z,10.74
2018-04-04T05:35:21.889Z,11.54
2018-04-04T05:37:50.678Z,12.94
2018-04-04T05:40:19.195Z,14.33
2018-04-04T05:42:49.278Z,15.99
2018-04-04T05:45:19.575Z,17.63
2018-04-04T05:47:48.342Z,19.24
2018-04-04T05:50:17.321Z,20.65
2018-04-04T05:52:46.438Z,21.81
2018-04-04T05:55:15.012Z,22.60
2018-04-04T05:57:55.379Z,22.16
2018-04-04T06:00:23.915Z,22.67
2018-04-04T06:02:52.802Z,23.29
2018-04-04T06:05:22.737Z,24.05
2018-04-04T06:07:51.752Z,23.96
2018-04-04T06:10:20.938Z,23.74
2018-04-04T06:15:25.922Z,23.58
2018-04-04T06:17:55.186Z,23.89
2018-04-04T06:20:24.255Z,24.41
2018-04-04T06:22:53.246Z,24.59
2018-04-04T06:25:22.559Z,24.97
2018-04-04T06:27:52.452Z,24.39
2018-04-04T06:30:22.215Z,22.62
2018-04-04T06:32:51.171Z,23.15
2018-04-04T06:35:20.189Z,24.07
2018-04-04T06:37:49.164Z,23.58
2018-04-04T06:40:18.364Z,24.66
2018-04-04T06:42:48.318Z,25.08
2018-04-04T06:45:17.385Z,25.27
2018-04-04T06:47:46.468Z,25.67
2018-04-04T06:50:15.719Z,25.62
2018-04-04T06:52:44.764Z,25.42
2018-04-04T06:55:13.970Z,24.33
2018-04-04T06:57:45.005Z,25.18
2018-04-04T07:00:14.109Z,25.72
2018-04-04T07:02:43.102Z,25.43
2018-04-04T07:05:12.024Z,24.70
2018-04-04T07:07:41.274Z,25.10
2018-04-04T07:10:10.223Z,24.05
2018-04-04T07:12:39.322Z,23.39
2018-04-04T07:15:09.388Z,22.13
2018-04-04T07:17:39.131Z,20.42
2018-04-04T07:20:15.297Z,19.66
2018-04-04T07:22:44.371Z,17.94
2018-04-04T07:25:13.804Z,17.38
2018-04-04T07:27:44.702Z,16.75
2018-04-04T07:30:13.727Z,15.72
2018-04-04T07:32:43.854Z,15.22
2018-04-04T07:35:14.602Z,15.13
2018-04-04T07:37:43.720Z,15.00
2018-04-04T07:40:13.743Z,14.65
2018-04-04T07:42:42.775Z,14.30
2018-04-04T07:45:11.974Z,14.34
2018-04-04T07:47:41.161Z,14.24
2018-04-04T07:50:12.923Z,14.32
2018-04-04T07:52:42.061Z,14.09
2018-04-04T07:55:11.123Z,13.65
2018-04-04T07:57:43.976Z,13.71
2018-04-04T08:00:12.932Z,13.43
2018-04-04T08:02:42.814Z,13.54
2018-04-04T08:05:13.251Z,13.56
2018-04-04T08:07:43.254Z,13.75
2018-04-04T08:10:12.320Z,13.78
2018-04-04T08:12:41.245Z,13.93
2018-04-04T08:15:12.300Z,14.20
2018-04-04T08:17:42.128Z,14.11
2018-04-04T08:20:11.026Z,14.35
2018-04-04T08:22:41.113Z,14.53
2018-04-04T08:25:13.213Z,14.67
2018-04-04T08:27:42.384Z,14.73
2018-04-04T08:30:11.419Z,14.81
2018-04-04T08:35:14.934Z,14.94
2018-04-04T08:37:43.874Z,14.92
2018-04-04T08:40:14.209Z,14.91
2018-04-04T08:42:43.198Z,15.00
2018-04-04T08:45:12.406Z,15.11
2018-04-04T08:47:42.103Z,15.23
2018-04-04T08:50:11.213Z,15.26
2018-04-04T08:52:40.045Z,14.96
2018-04-04T08:55:11.242Z,14.78
2018-04-04T08:57:40.436Z,14.76
2018-04-04T09:00:10.467Z,14.78
2018-04-04T09:02:41.391Z,14.77
2018-04-04T09:05:10.626Z,14.82
2018-04-04T09:07:39.587Z,14.88
2018-04-04T09:10:09.430Z,14.91
2018-04-04T09:12:38.701Z,14.96
2018-04-04T09:15:07.693Z,14.98
2018-04-04T09:17:38.736Z,14.97
2018-04-04T09:20:08.265Z,15.15
2018-04-04T09:22:38.090Z,15.16
2018-04-04T09:25:09.892Z,15.37
2018-04-04T09:27:38.912Z,15.34
2018-04-04T09:30:08.006Z,15.49
2018-04-04T09:32:38.762Z,15.35
2018-04-04T09:35:07.717Z,15.30
2018-04-04T09:37:36.546Z,15.27
2018-04-04T09:40:05.527Z,15.14
2018-04-04T09:42:35.639Z,15.08
2018-04-04T09:45:05.581Z,14.96
2018-04-04T09:47:36.096Z,15.12
2018-04-04T09:50:05.324Z,15.25
2018-04-04T09:52:34.295Z,15.29
2018-04-04T09:55:06.456Z,15.29
2018-04-04T09:57:37.798Z,15.35
2018-04-04T10:00:06.890Z,15.48
2018-04-04T10:02:38.760Z,15.45
2018-04-04T10:05:08.093Z,15.47
2018-04-04T10:07:37.103Z,15.56
2018-04-04T10:10:10.248Z,15.41
2018-04-04T10:12:39.179Z,15.40
2018-04-04T10:15:08.084Z,15.29
2018-04-04T10:17:37.216Z,15.35
2018-04-04T10:20:06.217Z,15.48
2018-04-04T10:22:35.414Z,15.59
2018-04-04T10:25:05.278Z,15.52
2018-04-04T10:27:35.288Z,15.59
2018-04-04T10:30:04.241Z,15.65
2018-04-04T10:32:33.175Z,15.53
2018-04-04T10:35:02.232Z,15.37
2018-04-04T10:37:32.755Z,15.14
2018-04-04T10:42:36.816Z,14.93
2018-04-04T10:45:10.186Z,14.71
2018-04-04T10:47:39.717Z,14.73
2018-04-04T10:50:08.642Z,14.83
2018-04-04T10:52:37.751Z,14.81
2018-04-04T10:55:06.842Z,14.81
2018-04-04T10:57:36.045Z,14.84
2018-04-04T11:00:05.757Z,14.61
2018-04-04T11:02:34.713Z,14.24
2018-04-04T11:05:04.038Z,14.01
2018-04-04T11:07:33.076Z,13.63
2018-04-04T11:10:02.055Z,13.77
2018-04-04T11:12:31.017Z,13.65
2018-04-04T11:15:00.983Z,13.66
2018-04-04T11:17:30.121Z,13.64
2018-04-04T11:19:59.031Z,13.38
2018-04-04T11:22:30.013Z,13.18
2018-04-04T11:24:59.233Z,13.35
2018-04-04T11:27:28.291Z,13.35
2018-04-04T11:29:57.559Z,13.21
2018-04-04T11:32:27.541Z,13.22
2018-04-04T11:34:57.431Z,13.30
2018-04-04T11:37:27.377Z,13.57
2018-04-04T11:39:56.408Z,13.78
2018-04-04T11:42:25.607Z,13.87
2018-04-04T11:44:54.662Z,14.01
2018-04-04T11:47:24.539Z,14.01
2018-04-04T11:49:53.782Z,14.00
2018-04-04T11:52:23.607Z,14.07
2018-04-04T11:54:52.907Z,14.17
2018-04-04T11:57:21.991Z,14.13
2018-04-04T12:02:27.965Z,14.15
2018-04-04T12:04:59.772Z,14.19
2018-04-04T12:07:31.494Z,14.27
2018-04-04T12:10:01.460Z,14.34
2018-04-04T12:12:31.543Z,14.40
2018-04-04T12:15:01.490Z,14.42
2018-04-04T12:17:30.450Z,14.44
2018-04-04T12:19:59.675Z,14.41
2018-04-04T12:22:32.925Z,14.42
2018-04-04T12:25:03.673Z,14.34
2018-04-04T12:27:32.754Z,14.18
2018-04-04T12:30:01.955Z,14.09
2018-04-04T12:32:31.250Z,14.01
2018-04-04T12:35:01.100Z,13.67
2018-04-04T12:37:29.993Z,13.75
2018-04-04T12:39:59.162Z,13.82
2018-04-04T12:42:28.283Z,13.89
2018-04-04T12:44:57.386Z,13.90
2018-04-04T12:47:26.491Z,13.69
2018-04-04T12:49:56.596Z,13.74
2018-04-04T12:52:27.435Z,13.65
2018-04-04T12:54:56.548Z,13.69
2018-04-04T12:57:25.493Z,13.75
2018-04-04T12:59:56.328Z,13.66
2018-04-04T13:02:25.327Z,13.76
2018-04-04T13:04:54.347Z,13.85
2018-04-04T13:07:24.336Z,13.90
2018-04-04T13:09:54.771Z,13.82
2018-04-04T13:12:23.763Z,13.73
2018-04-04T13:14:59.518Z,13.65
2018-04-04T13:17:29.343Z,13.83
2018-04-04T13:19:58.477Z,13.89
2018-04-04T13:22:28.340Z,13.96
2018-04-04T13:24:57.597Z,14.09
2018-04-04T13:27:26.550Z,13.97
2018-04-04T13:29:56.537Z,14.00
2018-04-04T13:32:26.504Z,14.09
2018-04-04T13:34:56.274Z,14.20
2018-04-04T13:37:27.072Z,14.30
2018-04-04T13:39:56.108Z,14.34
2018-04-04T13:42:25.114Z,14.36
2018-04-04T13:44:54.119Z,14.29
2018-04-04T13:47:24.647Z,14.19
2018-04-04T13:49:54.230Z,14.18
2018-04-04T13:52:24.052Z,14.07
2018-04-04T13:54:53.668Z,13.91
2018-04-04T13:57:25.693Z,13.93
2018-04-04T13:59:55.660Z,13.91
2018-04-04T14:02:24.632Z,13.80
2018-04-04T14:04:54.550Z,13.82
2018-04-04T14:07:23.645Z,13.58
2018-04-04T14:09:52.638Z,13.47
2018-04-04T14:12:22.359Z,13.40
2018-04-04T14:14:52.077Z,13.41
2018-04-04T14:17:21.043Z,13.35
2018-04-04T14:22:25.798Z,13.31
2018-04-04T14:24:54.904Z,13.26
2018-04-04T14:27:29.936Z,13.24
2018-04-04T14:29:58.923Z,13.26
2018-04-04T14:32:28.742Z,13.20
2018-04-04T14:34:58.551Z,13.23
2018-04-04T14:37:27.493Z,13.29
2018-04-04T14:40:00.168Z,13.23
2018-04-04T14:42:29.951Z,13.30
2018-04-04T14:44:59.082Z,13.29
2018-04-04T14:50:03.618Z,13.19
2018-04-04T14:52:32.984Z,13.11
2018-04-04T14:55:03.781Z,13.17
2018-04-04T14:57:32.810Z,13.19
2018-04-04T15:00:02.874Z,13.30
2018-04-04T15:02:33.855Z,13.21
2018-04-04T15:05:03.672Z,13.24
2018-04-04T15:07:32.724Z,13.06
2018-04-04T15:10:04.340Z,13.11
2018-04-04T15:12:33.435Z,13.21
2018-04-04T15:15:03.204Z,13.32
2018-04-04T15:17:32.979Z,13.37
2018-04-04T15:20:02.341Z,13.39
2018-04-04T15:22:31.426Z,13.42
2018-04-04T15:25:00.643Z,13.44
2018-04-04T15:27:29.677Z,13.50
2018-04-04T15:29:58.928Z,13.28
2018-04-04T15:35:02.338Z,13.34
2018-04-04T15:37:31.296Z,13.23
2018-04-04T15:40:00.377Z,13.10
2018-04-04T15:42:29.467Z,13.13
2018-04-04T15:44:58.431Z,13.12
2018-04-04T15:47:27.660Z,13.17
2018-04-04T15:49:56.761Z,13.14
2018-04-04T15:52:25.950Z,13.17
2018-04-04T15:54:55.050Z,13.06
2018-04-04T15:57:25.866Z,13.10
2018-04-04T15:59:54.945Z,12.96
2018-04-04T16:02:24.044Z,12.82
2018-04-04T16:04:54.222Z,12.83
2018-04-04T16:07:23.128Z,12.85
2018-04-04T16:09:53.082Z,12.89
2018-04-04T16:12:25.046Z,12.74
2018-04-04T16:14:54.234Z,12.69
2018-04-04T16:17:24.199Z,12.73
2018-04-04T16:22:27.962Z,12.66
2018-04-04T16:24:57.784Z,12.67
2018-04-04T16:27:28.567Z,12.62
2018-04-04T16:29:59.374Z,12.58
2018-04-04T16:32:28.354Z,12.39
2018-04-04T16:37:33.144Z,12.30
2018-04-04T16:40:02.096Z,12.28
2018-04-04T16:42:32.050Z,12.15
2018-04-04T16:45:01.113Z,12.09
2018-04-04T16:47:30.451Z,12.01
2018-04-04T16:50:00.528Z,12.03
2018-04-04T16:52:29.973Z,11.94
2018-04-04T16:54:59.028Z,11.93
2018-04-04T16:57:30.599Z,11.90
2018-04-04T16:59:59.982Z,11.85
2018-04-04T17:02:30.619Z,11.85
2018-04-04T17:04:59.823Z,11.81
2018-04-04T17:07:28.834Z,11.64
2018-04-04T17:09:58.973Z,11.49
2018-04-04T17:12:28.130Z,11.48
2018-04-04T17:14:57.992Z,11.47
2018-04-04T17:17:28.063Z,11.37
2018-04-04T17:19:57.254Z,11.25
2018-04-04T17:22:26.258Z,11.32
2018-04-04T17:24:56.097Z,11.35
2018-04-04T17:27:25.921Z,11.30
2018-04-04T17:32:54.490Z,11.31
2018-04-04T17:35:24.436Z,11.27
2018-04-04T17:37:53.361Z,11.27
2018-04-04T17:40:23.210Z,11.28
2018-04-04T17:42:52.338Z,11.20
2018-04-04T17:45:22.159Z,11.20
2018-04-04T17:47:53.083Z,11.13
2018-04-04T17:50:22.911Z,11.14
2018-04-04T17:52:53.716Z,11.19
2018-04-04T17:55:22.813Z,11.14
2018-04-04T17:57:52.721Z,11.13
2018-04-04T18:02:57.913Z,11.11
2018-04-04T18:05:27.024Z,11.06
2018-04-04T18:07:55.978Z,11.09
2018-04-04T18:10:25.428Z,11.11
2018-04-04T18:12:54.425Z,11.09
2018-04-04T18:15:24.512Z,11.10
2018-04-04T18:17:53.763Z,11.07
2018-04-04T18:20:23.197Z,11.07
2018-04-04T18:22:52.899Z,11.05
2018-04-04T18:25:21.893Z,11.02
2018-04-04T18:27:51.017Z,10.99
2018-04-04T18:30:20.224Z,11.00
2018-04-04T18:32:50.627Z,10.99
2018-04-04T18:35:20.787Z,10.96
2018-04-04T18:37:50.569Z,11.04
2018-04-04T18:40:20.579Z,11.04
2018-04-04T18:42:49.567Z,11.00
2018-04-04T18:45:19.088Z,10.97
2018-04-04T18:47:51.227Z,11.00
2018-04-04T18:50:21.004Z,10.95
2018-04-04T18:52:49.993Z,10.91
2018-04-04T18:55:20.034Z,10.77
2018-04-04T18:57:49.425Z,10.79
2018-04-04T19:00:19.231Z,10.81
2018-04-04T19:02:50.012Z,10.80
2018-04-04T19:05:19.931Z,10.81
2018-04-04T19:07:49.075Z,10.82
2018-04-04T19:10:21.091Z,10.88
2018-04-04T19:12:50.191Z,10.93
2018-04-04T19:15:20.412Z,10.95
2018-04-04T19:17:50.326Z,10.95
2018-04-04T19:20:20.249Z,10.96
2018-04-04T19:22:50.288Z,10.95
2018-04-04T19:25:21.365Z,11.00
2018-04-04T19:27:50.235Z,11.03
2018-04-04T19:30:19.082Z,11.03
2018-04-04T19:32:49.721Z,11.05
2018-04-04T19:35:18.465Z,11.08
2018-04-04T19:37:47.963Z,11.05
2018-04-04T19:40:17.826Z,11.06
2018-04-04T19:42:46.972Z,11.00
2018-04-04T19:45:16.026Z,10.90
2018-04-04T19:50:18.908Z,10.95
2018-04-04T19:52:47.913Z,10.92
2018-04-04T19:55:18.033Z,10.87
2018-04-04T20:00:21.313Z,10.86
2018-04-04T20:02:50.470Z,10.82
2018-04-04T20:05:19.641Z,10.85
2018-04-04T20:07:48.646Z,10.84
2018-04-04T20:10:17.837Z,10.87
2018-04-04T20:12:46.988Z,10.84
2018-04-04T20:15:17.243Z,10.76
2018-04-04T20:17:49.674Z,10.74
2018-04-04T20:20:18.832Z,10.77
2018-04-04T20:22:49.551Z,10.71
2018-04-04T20:25:19.747Z,10.72
2018-04-04T20:27:48.778Z,10.70
2018-04-04T20:30:17.981Z,10.69
2018-04-04T20:32:47.641Z,10.69
2018-04-04T20:35:19.410Z,10.64
2018-04-04T20:37:48.651Z,10.61
2018-04-04T20:40:18.338Z,10.55
2018-04-04T20:45:21.724Z,10.58
2018-04-04T20:47:51.117Z,10.55
2018-04-04T20:50:20.299Z,10.53
2018-04-04T20:52:49.407Z,10.52
2018-04-04T20:55:18.812Z,10.46
2018-04-04T20:57:53.774Z,10.42
2018-04-04T21:00:22.861Z,10.45
2018-04-04T21:02:52.786Z,10.45
2018-04-04T21:05:21.939Z,10.42
2018-04-04T21:07:51.082Z,10.39
2018-04-04T21:10:20.182Z,10.24
2018-04-04T21:12:51.209Z,10.20
2018-04-04T21:15:21.153Z,10.19
2018-04-04T21:17:50.661Z,10.15
2018-04-04T21:20:20.324Z,10.11
2018-04-04T21:22:49.356Z,10.08
2018-04-04T21:25:18.398Z,10.00
2018-04-04T21:27:47.378Z,9.94
2018-04-04T21:30:16.407Z,9.87
2018-04-04T21:32:45.523Z,9.84
2018-04-04T21:35:20.422Z,9.78
2018-04-04T21:37:49.636Z,9.75
2018-04-04T21:40:21.072Z,9.76
2018-04-04T21:45:28.068Z,9.62
2018-04-04T21:47:57.356Z,9.61
2018-04-04T21:50:27.480Z,9.60
2018-04-04T21:52:56.624Z,9.59
2018-04-04T21:55:25.928Z,9.56
2018-04-04T21:57:55.098Z,9.60
2018-04-04T22:00:24.079Z,9.61
2018-04-04T22:02:54.057Z,9.66
2018-04-04T22:05:24.366Z,9.75
2018-04-04T22:07:53.308Z,9.76
2018-04-04T22:10:22.439Z,9.75
2018-04-04T22:12:52.454Z,9.78
2018-04-04T22:15:21.856Z,9.75
2018-04-04T22:17:56.774Z,9.80
2018-04-04T22:20:26.040Z,9.70
2018-04-04T22:22:55.256Z,9.77
2018-04-04T22:25:25.419Z,9.76
2018-04-04T22:27:55.363Z,9.77
2018-04-04T22:30:24.489Z,9.76
2018-04-04T22:32:54.470Z,9.77
2018-04-04T22:35:24.364Z,9.76
2018-04-04T22:37:54.278Z,9.66
2018-04-04T22:40:23.469Z,9.75
2018-04-04T22:42:53.784Z,9.74
2018-04-04T22:45:22.946Z,9.67
2018-04-04T22:47:53.079Z,9.64
2018-04-04T22:50:22.118Z,9.60
2018-04-04T22:52:51.304Z,9.60
2018-04-04T22:55:22.762Z,9.53
2018-04-04T22:57:52.100Z,9.54
2018-04-04T23:00:22.363Z,9.50
2018-04-04T23:02:52.403Z,9.44
2018-04-04T23:05:22.548Z,9.50
2018-04-04T23:07:51.781Z,9.43
2018-04-04T23:10:20.989Z,9.42
2018-04-04T23:12:50.892Z,9.44
2018-04-04T23:15:28.335Z,9.36
2018-04-04T23:18:01.772Z,9.42
2018-04-04T23:20:34.953Z,9.48
2018-04-04T23:23:04.297Z,9.48
2018-04-04T23:25:34.521Z,9.52
2018-04-04T23:28:05.284Z,9.43
2018-04-04T23:30:35.296Z,9.41
2018-04-04T23:33:04.354Z,9.36
2018-04-04T23:35:33.650Z,9.35
2018-04-04T23:38:03.503Z,9.38
2018-04-04T23:40:32.619Z,9.39
2018-04-04T23:43:01.907Z,9.37
2018-04-04T23:45:30.966Z,9.43
2018-04-04T23:48:01.592Z,9.47
2018-04-04T23:50:37.446Z,9.49
2018-04-04T23:53:07.152Z,9.48
2018-04-04T23:55:37.215Z,9.49
2018-04-04T23:58:07.846Z,9.52
